sensor_id;sensor_type;location;lat;lon;timestamp;temperature;humidity
45765;DHT22;31474;45.332;10.230;2023-08-01T00:00:17;25.50;99.90
45765;DHT22;31474;45.332;10.230;2023-08-01T00:02:42;25.50;99.90
45765;DHT22;31474;45.332;10.230;2023-08-01T00:05:08;25.40;99.90
45765;DHT22;31474;45.332;10.230;2023-08-01T00:07:34;25.40;99.90
45765;DHT22;31474;45.332;10.230;2023-08-01T00:10:00;25.40;99.90
45765;DHT22;31474;45.332;10.230;2023-08-01T00:12:25;25.40;99.90
45765;DHT22;31474;45.332;10.230;2023-08-01T00:14:51;25.30;99.90
45765;DHT22;31474;45.332;10.230;2023-08-01T00:17:17;25.20;99.90
45765;DHT22;31474;45.332;10.230;2023-08-01T00:19:42;25.10;99.90
45765;DHT22;31474;45.332;10.230;2023-08-01T00:22:08;25.10;99.90
45765;DHT22;31474;45.332;10.230;2023-08-01T00:24:35;25.10;99.90
45765;DHT22;31474;45.332;10.230;2023-08-01T00:27:01;25.00;99.90
45765;DHT22;31474;45.332;10.230;2023-08-01T00:29:27;25.00;99.90
45765;DHT22;31474;45.332;10.230;2023-08-01T00:31:52;24.90;99.90
45765;DHT22;31474;45.332;10.230;2023-08-01T00:34:18;25.00;99.90
45765;DHT22;31474;45.332;10.230;2023-08-01T00:36:44;25.00;99.90
45765;DHT22;31474;45.332;10.230;2023-08-01T00:39:09;25.00;99.90
45765;DHT22;31474;45.332;10.230;2023-08-01T00:41:35;25.00;99.90
45765;DHT22;31474;45.332;10.230;2023-08-01T00:44:01;24.90;99.90
45765;DHT22;31474;45.332;10.230;2023-08-01T00:46:26;24.90;99.90
45765;DHT22;31474;45.332;10.230;2023-08-01T00:48:53;24.90;99.90
45765;DHT22;31474;45.332;10.230;2023-08-01T00:51:23;24.90;99.90
45765;DHT22;31474;45.332;10.230;2023-08-01T00:53:50;25.00;99.90
45765;DHT22;31474;45.332;10.230;2023-08-01T00:56:17;25.00;99.90
45765;DHT22;31474;45.332;10.230;2023-08-01T00:58:42;25.00;99.90
45765;DHT22;31474;45.332;10.230;2023-08-01T01:01:08;25.00;99.90
45765;DHT22;31474;45.332;10.230;2023-08-01T01:03:34;25.00;99.90
45765;DHT22;31474;45.332;10.230;2023-08-01T01:06:16;25.00;99.90
45765;DHT22;31474;45.332;10.230;2023-08-01T01:08:47;24.90;99.90
45765;DHT22;31474;45.332;10.230;2023-08-01T01:11:13;24.90;99.90
45765;DHT22;31474;45.332;10.230;2023-08-01T01:13:39;24.90;99.90
45765;DHT22;31474;45.332;10.230;2023-08-01T01:16:05;24.90;99.90
45765;DHT22;31474;45.332;10.230;2023-08-01T01:18:31;24.80;99.90
45765;DHT22;31474;45.332;10.230;2023-08-01T01:20:56;24.90;99.90
45765;DHT22;31474;45.332;10.230;2023-08-01T01:23:22;24.90;99.90
45765;DHT22;31474;45.332;10.230;2023-08-01T01:25:51;24.80;99.90
45765;DHT22;31474;45.332;10.230;2023-08-01T01:28:17;24.80;99.90
45765;DHT22;31474;45.332;10.230;2023-08-01T01:30:44;24.80;99.90
45765;DHT22;31474;45.332;10.230;2023-08-01T01:33:10;24.80;99.90
45765;DHT22;31474;45.332;10.230;2023-08-01T01:35:36;24.70;99.90
45765;DHT22;31474;45.332;10.230;2023-08-01T01:38:02;24.70;99.90
45765;DHT22;31474;45.332;10.230;2023-08-01T01:40:32;24.70;99.90
45765;DHT22;31474;45.332;10.230;2023-08-01T01:42:59;24.60;99.90
45765;DHT22;31474;45.332;10.230;2023-08-01T01:45:25;24.70;99.90
45765;DHT22;31474;45.332;10.230;2023-08-01T01:47:51;24.80;99.90
45765;DHT22;31474;45.332;10.230;2023-08-01T01:50:17;24.70;99.90
45765;DHT22;31474;45.332;10.230;2023-08-01T01:52:44;24.60;99.90
45765;DHT22;31474;45.332;10.230;2023-08-01T01:55:09;24.60;99.90
45765;DHT22;31474;45.332;10.230;2023-08-01T01:57:35;24.60;99.90
45765;DHT22;31474;45.332;10.230;2023-08-01T02:00:06;24.60;99.90
45765;DHT22;31474;45.332;10.230;2023-08-01T02:02:35;24.70;99.90
45765;DHT22;31474;45.332;10.230;2023-08-01T02:05:01;24.70;99.90
45765;DHT22;31474;45.332;10.230;2023-08-01T02:07:27;24.70;99.90
45765;DHT22;31474;45.332;10.230;2023-08-01T02:09:52;24.70;99.90
45765;DHT22;31474;45.332;10.230;2023-08-01T02:12:18;24.60;99.90
45765;DHT22;31474;45.332;10.230;2023-08-01T02:14:44;24.60;99.90
45765;DHT22;31474;45.332;10.230;2023-08-01T02:17:09;24.40;99.90
45765;DHT22;31474;45.332;10.230;2023-08-01T02:19:35;24.50;99.90
45765;DHT22;31474;45.332;10.230;2023-08-01T02:22:01;24.50;99.90
45765;DHT22;31474;45.332;10.230;2023-08-01T02:24:26;24.50;99.90
45765;DHT22;31474;45.332;10.230;2023-08-01T02:26:52;24.60;99.90
45765;DHT22;31474;45.332;10.230;2023-08-01T02:29:18;24.60;99.90
45765;DHT22;31474;45.332;10.230;2023-08-01T02:31:43;24.60;99.90
45765;DHT22;31474;45.332;10.230;2023-08-01T02:34:09;24.60;99.90
45765;DHT22;31474;45.332;10.230;2023-08-01T02:36:35;24.60;99.90
45765;DHT22;31474;45.332;10.230;2023-08-01T02:39:00;24.70;99.90
45765;DHT22;31474;45.332;10.230;2023-08-01T02:41:26;24.60;99.90
45765;DHT22;31474;45.332;10.230;2023-08-01T02:43:51;24.60;99.90
45765;DHT22;31474;45.332;10.230;2023-08-01T02:46:17;24.60;99.90
45765;DHT22;31474;45.332;10.230;2023-08-01T02:48:43;24.50;99.90
45765;DHT22;31474;45.332;10.230;2023-08-01T02:51:08;24.50;99.90
45765;DHT22;31474;45.332;10.230;2023-08-01T02:53:35;24.60;99.90
45765;DHT22;31474;45.332;10.230;2023-08-01T02:56:02;24.60;99.90
45765;DHT22;31474;45.332;10.230;2023-08-01T02:58:28;24.60;99.90
45765;DHT22;31474;45.332;10.230;2023-08-01T03:00:54;24.50;99.90
45765;DHT22;31474;45.332;10.230;2023-08-01T03:03:19;24.40;99.90
45765;DHT22;31474;45.332;10.230;2023-08-01T03:05:45;24.50;99.90
45765;DHT22;31474;45.332;10.230;2023-08-01T03:08:11;24.50;99.90
45765;DHT22;31474;45.332;10.230;2023-08-01T03:10:36;24.50;99.90
45765;DHT22;31474;45.332;10.230;2023-08-01T03:13:02;24.50;99.90
45765;DHT22;31474;45.332;10.230;2023-08-01T03:15:28;24.50;99.90
45765;DHT22;31474;45.332;10.230;2023-08-01T03:17:53;24.60;99.90
45765;DHT22;31474;45.332;10.230;2023-08-01T03:20:19;24.60;99.90
45765;DHT22;31474;45.332;10.230;2023-08-01T03:22:45;24.60;99.90
45765;DHT22;31474;45.332;10.230;2023-08-01T03:25:11;24.70;99.90
45765;DHT22;31474;45.332;10.230;2023-08-01T03:27:37;24.60;99.90
45765;DHT22;31474;45.332;10.230;2023-08-01T03:30:03;24.60;99.90
45765;DHT22;31474;45.332;10.230;2023-08-01T03:32:30;24.70;99.90
45765;DHT22;31474;45.332;10.230;2023-08-01T03:34:56;24.80;99.90
45765;DHT22;31474;45.332;10.230;2023-08-01T03:37:21;24.80;99.90
45765;DHT22;31474;45.332;10.230;2023-08-01T03:39:47;24.80;99.90
45765;DHT22;31474;45.332;10.230;2023-08-01T03:42:13;24.60;99.90
45765;DHT22;31474;45.332;10.230;2023-08-01T03:44:38;24.50;99.90
45765;DHT22;31474;45.332;10.230;2023-08-01T03:47:04;24.60;99.90
45765;DHT22;31474;45.332;10.230;2023-08-01T03:49:30;24.50;99.90
45765;DHT22;31474;45.332;10.230;2023-08-01T03:51:55;24.50;99.90
45765;DHT22;31474;45.332;10.230;2023-08-01T03:54:21;24.50;99.90
45765;DHT22;31474;45.332;10.230;2023-08-01T03:56:47;24.60;99.90
45765;DHT22;31474;45.332;10.230;2023-08-01T03:59:16;24.60;99.90
45765;DHT22;31474;45.332;10.230;2023-08-01T04:01:42;24.70;99.90
45765;DHT22;31474;45.332;10.230;2023-08-01T04:04:08;24.60;99.90
45765;DHT22;31474;45.332;10.230;2023-08-01T04:06:34;24.70;99.90
45765;DHT22;31474;45.332;10.230;2023-08-01T04:09:00;24.70;99.90
45765;DHT22;31474;45.332;10.230;2023-08-01T04:11:26;24.80;99.90
45765;DHT22;31474;45.332;10.230;2023-08-01T04:13:52;24.70;99.90
45765;DHT22;31474;45.332;10.230;2023-08-01T04:16:19;24.80;99.90
45765;DHT22;31474;45.332;10.230;2023-08-01T04:18:45;24.70;99.90
45765;DHT22;31474;45.332;10.230;2023-08-01T04:21:13;24.60;99.90
45765;DHT22;31474;45.332;10.230;2023-08-01T04:23:38;24.70;99.90
45765;DHT22;31474;45.332;10.230;2023-08-01T04:26:04;24.60;99.90
45765;DHT22;31474;45.332;10.230;2023-08-01T04:28:32;24.60;99.90
45765;DHT22;31474;45.332;10.230;2023-08-01T04:30:57;24.60;99.90
45765;DHT22;31474;45.332;10.230;2023-08-01T04:33:23;24.50;99.90
45765;DHT22;31474;45.332;10.230;2023-08-01T04:35:48;24.60;99.90
45765;DHT22;31474;45.332;10.230;2023-08-01T04:38:15;24.60;99.90
45765;DHT22;31474;45.332;10.230;2023-08-01T04:40:41;24.60;99.90
45765;DHT22;31474;45.332;10.230;2023-08-01T04:43:06;24.70;99.90
45765;DHT22;31474;45.332;10.230;2023-08-01T04:45:32;24.80;99.90
45765;DHT22;31474;45.332;10.230;2023-08-01T04:47:58;24.80;99.90
45765;DHT22;31474;45.332;10.230;2023-08-01T04:50:23;24.80;99.90
45765;DHT22;31474;45.332;10.230;2023-08-01T04:52:49;24.80;99.90
45765;DHT22;31474;45.332;10.230;2023-08-01T04:55:14;24.90;99.90
45765;DHT22;31474;45.332;10.230;2023-08-01T04:57:40;25.00;99.90
45765;DHT22;31474;45.332;10.230;2023-08-01T05:00:06;25.00;99.90
45765;DHT22;31474;45.332;10.230;2023-08-01T05:02:32;25.00;99.90
45765;DHT22;31474;45.332;10.230;2023-08-01T05:04:58;25.00;99.90
45765;DHT22;31474;45.332;10.230;2023-08-01T05:07:23;25.00;99.90
45765;DHT22;31474;45.332;10.230;2023-08-01T05:09:49;25.00;99.90
45765;DHT22;31474;45.332;10.230;2023-08-01T05:12:15;25.00;99.90
45765;DHT22;31474;45.332;10.230;2023-08-01T05:14:40;24.90;99.90
45765;DHT22;31474;45.332;10.230;2023-08-01T05:17:06;24.80;99.90
45765;DHT22;31474;45.332;10.230;2023-08-01T05:19:32;24.80;99.90
45765;DHT22;31474;45.332;10.230;2023-08-01T05:21:57;24.80;99.90
45765;DHT22;31474;45.332;10.230;2023-08-01T05:24:23;24.80;99.90
45765;DHT22;31474;45.332;10.230;2023-08-01T05:26:49;24.80;99.90
45765;DHT22;31474;45.332;10.230;2023-08-01T05:29:14;24.70;99.90
45765;DHT22;31474;45.332;10.230;2023-08-01T05:31:40;24.70;99.90
45765;DHT22;31474;45.332;10.230;2023-08-01T05:34:05;24.70;99.90
45765;DHT22;31474;45.332;10.230;2023-08-01T05:36:31;24.80;99.90
45765;DHT22;31474;45.332;10.230;2023-08-01T05:38:57;24.80;99.90
45765;DHT22;31474;45.332;10.230;2023-08-01T05:41:23;24.80;99.90
45765;DHT22;31474;45.332;10.230;2023-08-01T05:43:49;24.80;99.90
45765;DHT22;31474;45.332;10.230;2023-08-01T05:46:15;24.80;99.90
45765;DHT22;31474;45.332;10.230;2023-08-01T05:48:41;24.90;99.90
45765;DHT22;31474;45.332;10.230;2023-08-01T05:51:07;24.90;99.90
45765;DHT22;31474;45.332;10.230;2023-08-01T05:53:32;24.80;99.90
45765;DHT22;31474;45.332;10.230;2023-08-01T05:55:58;24.80;99.90
45765;DHT22;31474;45.332;10.230;2023-08-01T05:58:24;24.80;99.90
45765;DHT22;31474;45.332;10.230;2023-08-01T06:00:50;24.90;99.90
45765;DHT22;31474;45.332;10.230;2023-08-01T06:03:16;24.90;99.90
45765;DHT22;31474;45.332;10.230;2023-08-01T06:05:42;24.80;99.90
45765;DHT22;31474;45.332;10.230;2023-08-01T06:08:08;24.80;99.90
45765;DHT22;31474;45.332;10.230;2023-08-01T06:10:34;24.90;99.90
45765;DHT22;31474;45.332;10.230;2023-08-01T06:13:00;25.00;99.90
45765;DHT22;31474;45.332;10.230;2023-08-01T06:15:26;25.00;99.90
45765;DHT22;31474;45.332;10.230;2023-08-01T06:17:52;25.10;99.90
45765;DHT22;31474;45.332;10.230;2023-08-01T06:20:17;25.10;99.90
45765;DHT22;31474;45.332;10.230;2023-08-01T06:22:43;25.10;99.90
45765;DHT22;31474;45.332;10.230;2023-08-01T06:25:09;25.10;99.90
45765;DHT22;31474;45.332;10.230;2023-08-01T06:27:34;25.10;99.90
45765;DHT22;31474;45.332;10.230;2023-08-01T06:30:00;25.20;99.90
45765;DHT22;31474;45.332;10.230;2023-08-01T06:32:26;25.20;99.90
45765;DHT22;31474;45.332;10.230;2023-08-01T06:34:52;25.30;99.90
45765;DHT22;31474;45.332;10.230;2023-08-01T06:37:17;25.40;99.90
45765;DHT22;31474;45.332;10.230;2023-08-01T06:39:43;25.30;99.90
45765;DHT22;31474;45.332;10.230;2023-08-01T06:42:09;25.30;99.90
45765;DHT22;31474;45.332;10.230;2023-08-01T06:44:35;25.30;99.90
45765;DHT22;31474;45.332;10.230;2023-08-01T06:47:00;25.30;99.90
45765;DHT22;31474;45.332;10.230;2023-08-01T06:49:26;25.30;99.90
45765;DHT22;31474;45.332;10.230;2023-08-01T06:51:51;25.30;99.90
45765;DHT22;31474;45.332;10.230;2023-08-01T06:54:17;25.40;99.90
45765;DHT22;31474;45.332;10.230;2023-08-01T06:56:43;25.50;99.90
45765;DHT22;31474;45.332;10.230;2023-08-01T06:59:13;25.40;99.90
45765;DHT22;31474;45.332;10.230;2023-08-01T07:01:40;25.40;99.90
45765;DHT22;31474;45.332;10.230;2023-08-01T07:04:09;25.50;99.90
45765;DHT22;31474;45.332;10.230;2023-08-01T07:06:34;25.50;99.90
45765;DHT22;31474;45.332;10.230;2023-08-01T07:09:00;25.50;99.90
45765;DHT22;31474;45.332;10.230;2023-08-01T07:11:26;25.60;99.90
45765;DHT22;31474;45.332;10.230;2023-08-01T07:13:51;25.80;99.90
45765;DHT22;31474;45.332;10.230;2023-08-01T07:16:17;25.80;99.90
45765;DHT22;31474;45.332;10.230;2023-08-01T07:18:43;26.10;99.90
45765;DHT22;31474;45.332;10.230;2023-08-01T07:21:08;26.40;99.90
45765;DHT22;31474;45.332;10.230;2023-08-01T07:23:35;26.50;99.90
45765;DHT22;31474;45.332;10.230;2023-08-01T07:26:03;26.70;99.90
45765;DHT22;31474;45.332;10.230;2023-08-01T07:28:29;26.80;99.90
45765;DHT22;31474;45.332;10.230;2023-08-01T07:31:12;26.80;99.90
45765;DHT22;31474;45.332;10.230;2023-08-01T07:33:38;26.90;99.90
45765;DHT22;31474;45.332;10.230;2023-08-01T07:36:04;26.80;99.90
45765;DHT22;31474;45.332;10.230;2023-08-01T07:38:30;26.80;99.90
45765;DHT22;31474;45.332;10.230;2023-08-01T07:41:03;26.80;99.90
45765;DHT22;31474;45.332;10.230;2023-08-01T07:43:29;27.00;99.90
45765;DHT22;31474;45.332;10.230;2023-08-01T07:45:56;27.20;99.90
45765;DHT22;31474;45.332;10.230;2023-08-01T07:48:22;27.10;99.90
45765;DHT22;31474;45.332;10.230;2023-08-01T07:50:48;27.20;99.90
45765;DHT22;31474;45.332;10.230;2023-08-01T07:53:13;27.10;99.90
45765;DHT22;31474;45.332;10.230;2023-08-01T07:55:39;27.00;99.90
45765;DHT22;31474;45.332;10.230;2023-08-01T07:58:05;27.00;99.90
45765;DHT22;31474;45.332;10.230;2023-08-01T08:00:30;27.30;99.90
45765;DHT22;31474;45.332;10.230;2023-08-01T08:02:57;27.60;99.90
45765;DHT22;31474;45.332;10.230;2023-08-01T08:05:22;27.90;99.90
45765;DHT22;31474;45.332;10.230;2023-08-01T08:07:48;27.90;99.90
45765;DHT22;31474;45.332;10.230;2023-08-01T08:10:14;28.10;99.90
45765;DHT22;31474;45.332;10.230;2023-08-01T08:12:40;28.20;99.90
45765;DHT22;31474;45.332;10.230;2023-08-01T08:15:06;28.20;99.90
45765;DHT22;31474;45.332;10.230;2023-08-01T08:17:32;28.40;99.90
45765;DHT22;31474;45.332;10.230;2023-08-01T08:19:57;28.40;99.90
45765;DHT22;31474;45.332;10.230;2023-08-01T08:22:23;28.30;99.90
45765;DHT22;31474;45.332;10.230;2023-08-01T08:24:50;28.50;99.90
45765;DHT22;31474;45.332;10.230;2023-08-01T08:27:15;28.60;99.90
45765;DHT22;31474;45.332;10.230;2023-08-01T08:29:41;28.60;99.90
45765;DHT22;31474;45.332;10.230;2023-08-01T08:32:07;28.70;99.90
45765;DHT22;31474;45.332;10.230;2023-08-01T08:34:32;28.70;99.90
45765;DHT22;31474;45.332;10.230;2023-08-01T08:36:58;28.90;99.90
45765;DHT22;31474;45.332;10.230;2023-08-01T08:39:24;28.60;99.90
45765;DHT22;31474;45.332;10.230;2023-08-01T08:41:51;28.60;99.90
45765;DHT22;31474;45.332;10.230;2023-08-01T08:44:18;28.70;99.90
45765;DHT22;31474;45.332;10.230;2023-08-01T08:46:54;28.90;99.90
45765;DHT22;31474;45.332;10.230;2023-08-01T08:49:21;29.10;99.90
45765;DHT22;31474;45.332;10.230;2023-08-01T08:51:48;29.30;99.90
45765;DHT22;31474;45.332;10.230;2023-08-01T08:54:15;29.30;99.90
45765;DHT22;31474;45.332;10.230;2023-08-01T08:56:41;29.40;99.90
45765;DHT22;31474;45.332;10.230;2023-08-01T08:59:08;29.50;99.90
45765;DHT22;31474;45.332;10.230;2023-08-01T09:01:36;29.70;99.90
45765;DHT22;31474;45.332;10.230;2023-08-01T09:04:02;29.90;99.90
45765;DHT22;31474;45.332;10.230;2023-08-01T09:06:42;29.80;99.90
45765;DHT22;31474;45.332;10.230;2023-08-01T09:09:12;29.90;99.90
45765;DHT22;31474;45.332;10.230;2023-08-01T09:11:49;30.00;99.90
45765;DHT22;31474;45.332;10.230;2023-08-01T09:14:15;29.90;99.60
45765;DHT22;31474;45.332;10.230;2023-08-01T09:16:42;29.80;99.90
45765;DHT22;31474;45.332;10.230;2023-08-01T09:19:08;29.70;99.90
45765;DHT22;31474;45.332;10.230;2023-08-01T09:21:35;29.60;99.90
45765;DHT22;31474;45.332;10.230;2023-08-01T09:24:19;29.70;99.90
45765;DHT22;31474;45.332;10.230;2023-08-01T09:26:46;29.80;99.90
45765;DHT22;31474;45.332;10.230;2023-08-01T09:29:12;29.90;99.90
45765;DHT22;31474;45.332;10.230;2023-08-01T09:31:40;30.00;99.90
45765;DHT22;31474;45.332;10.230;2023-08-01T09:34:20;30.00;99.90
45765;DHT22;31474;45.332;10.230;2023-08-01T09:36:46;30.20;99.90
45765;DHT22;31474;45.332;10.230;2023-08-01T09:39:16;30.50;99.90
45765;DHT22;31474;45.332;10.230;2023-08-01T09:41:43;30.80;99.90
45765;DHT22;31474;45.332;10.230;2023-08-01T09:44:14;30.80;99.90
45765;DHT22;31474;45.332;10.230;2023-08-01T09:46:40;31.00;99.90
45765;DHT22;31474;45.332;10.230;2023-08-01T09:49:11;30.80;99.00
45765;DHT22;31474;45.332;10.230;2023-08-01T09:51:50;30.60;99.70
45765;DHT22;31474;45.332;10.230;2023-08-01T09:54:16;30.80;99.90
45765;DHT22;31474;45.332;10.230;2023-08-01T09:56:47;30.70;99.90
45765;DHT22;31474;45.332;10.230;2023-08-01T09:59:19;30.70;99.90
45765;DHT22;31474;45.332;10.230;2023-08-01T10:01:51;30.60;99.90
45765;DHT22;31474;45.332;10.230;2023-08-01T10:04:30;30.50;99.50
45765;DHT22;31474;45.332;10.230;2023-08-01T10:07:03;30.50;99.80
45765;DHT22;31474;45.332;10.230;2023-08-01T10:09:32;30.50;99.90
45765;DHT22;31474;45.332;10.230;2023-08-01T10:11:59;30.60;99.90
45765;DHT22;31474;45.332;10.230;2023-08-01T10:14:25;30.70;99.90
45765;DHT22;31474;45.332;10.230;2023-08-01T10:16:52;30.90;99.90
45765;DHT22;31474;45.332;10.230;2023-08-01T10:19:19;30.90;99.70
45765;DHT22;31474;45.332;10.230;2023-08-01T10:21:47;30.80;99.50
45765;DHT22;31474;45.332;10.230;2023-08-01T10:24:13;30.90;99.90
45765;DHT22;31474;45.332;10.230;2023-08-01T10:26:40;31.00;99.90
45765;DHT22;31474;45.332;10.230;2023-08-01T10:29:05;31.00;99.90
45765;DHT22;31474;45.332;10.230;2023-08-01T10:31:31;31.00;99.50
45765;DHT22;31474;45.332;10.230;2023-08-01T10:34:06;30.70;99.90
45765;DHT22;31474;45.332;10.230;2023-08-01T10:36:32;30.70;99.40
45765;DHT22;31474;45.332;10.230;2023-08-01T10:39:00;30.70;99.40
45765;DHT22;31474;45.332;10.230;2023-08-01T10:41:30;30.70;99.40
45765;DHT22;31474;45.332;10.230;2023-08-01T10:47:05;30.80;98.70
45765;DHT22;31474;45.332;10.230;2023-08-01T10:49:40;30.70;98.80
45765;DHT22;31474;45.332;10.230;2023-08-01T10:52:26;30.80;98.70
45765;DHT22;31474;45.332;10.230;2023-08-01T10:55:02;30.60;98.20
45765;DHT22;31474;45.332;10.230;2023-08-01T10:57:29;30.60;99.30
45765;DHT22;31474;45.332;10.230;2023-08-01T10:59:56;30.60;99.40
45765;DHT22;31474;45.332;10.230;2023-08-01T11:02:25;30.60;99.60
45765;DHT22;31474;45.332;10.230;2023-08-01T11:05:02;30.70;99.90
45765;DHT22;31474;45.332;10.230;2023-08-01T11:07:28;30.70;99.90
45765;DHT22;31474;45.332;10.230;2023-08-01T11:12:30;30.70;99.40
45765;DHT22;31474;45.332;10.230;2023-08-01T11:15:00;30.70;99.60
45765;DHT22;31474;45.332;10.230;2023-08-01T11:17:26;30.70;99.70
45765;DHT22;31474;45.332;10.230;2023-08-01T11:19:51;30.60;99.40
45765;DHT22;31474;45.332;10.230;2023-08-01T11:22:25;30.50;99.90
45765;DHT22;31474;45.332;10.230;2023-08-01T11:24:50;30.40;99.90
45765;DHT22;31474;45.332;10.230;2023-08-01T11:27:16;30.30;99.80
45765;DHT22;31474;45.332;10.230;2023-08-01T11:29:42;30.30;99.90
45765;DHT22;31474;45.332;10.230;2023-08-01T11:32:07;30.30;99.90
45765;DHT22;31474;45.332;10.230;2023-08-01T11:34:40;30.30;99.90
45765;DHT22;31474;45.332;10.230;2023-08-01T11:37:14;30.40;99.90
45765;DHT22;31474;45.332;10.230;2023-08-01T11:39:40;30.40;99.90
45765;DHT22;31474;45.332;10.230;2023-08-01T11:42:06;30.50;99.90
45765;DHT22;31474;45.332;10.230;2023-08-01T11:44:31;30.60;99.90
45765;DHT22;31474;45.332;10.230;2023-08-01T11:46:57;30.80;99.90
45765;DHT22;31474;45.332;10.230;2023-08-01T11:49:23;30.90;99.80
45765;DHT22;31474;45.332;10.230;2023-08-01T11:51:49;30.90;99.80
45765;DHT22;31474;45.332;10.230;2023-08-01T11:54:15;30.90;99.90
45765;DHT22;31474;45.332;10.230;2023-08-01T11:56:42;30.90;99.90
45765;DHT22;31474;45.332;10.230;2023-08-01T11:59:12;30.80;99.80
45765;DHT22;31474;45.332;10.230;2023-08-01T12:01:39;30.90;99.40
45765;DHT22;31474;45.332;10.230;2023-08-01T12:04:05;30.90;99.90
45765;DHT22;31474;45.332;10.230;2023-08-01T12:06:32;30.80;99.90
45765;DHT22;31474;45.332;10.230;2023-08-01T12:09:10;30.80;99.90
45765;DHT22;31474;45.332;10.230;2023-08-01T12:11:35;30.80;99.90
45765;DHT22;31474;45.332;10.230;2023-08-01T12:16:35;30.70;99.90
45765;DHT22;31474;45.332;10.230;2023-08-01T12:19:01;30.70;99.90
45765;DHT22;31474;45.332;10.230;2023-08-01T12:21:27;30.80;99.90
45765;DHT22;31474;45.332;10.230;2023-08-01T12:23:52;30.80;99.90
45765;DHT22;31474;45.332;10.230;2023-08-01T12:26:18;30.90;99.80
45765;DHT22;31474;45.332;10.230;2023-08-01T12:28:44;30.90;99.60
45765;DHT22;31474;45.332;10.230;2023-08-01T12:31:09;31.10;99.80
45765;DHT22;31474;45.332;10.230;2023-08-01T12:33:35;31.30;99.60
45765;DHT22;31474;45.332;10.230;2023-08-01T12:36:02;31.40;99.90
45765;DHT22;31474;45.332;10.230;2023-08-01T12:38:28;31.20;99.50
45765;DHT22;31474;45.332;10.230;2023-08-01T12:40:54;31.10;99.90
45765;DHT22;31474;45.332;10.230;2023-08-01T12:43:20;31.00;99.90
45765;DHT22;31474;45.332;10.230;2023-08-01T12:45:46;30.90;99.90
45765;DHT22;31474;45.332;10.230;2023-08-01T12:48:12;30.80;99.90
45765;DHT22;31474;45.332;10.230;2023-08-01T12:50:38;30.70;99.90
45765;DHT22;31474;45.332;10.230;2023-08-01T12:53:03;30.80;99.90
45765;DHT22;31474;45.332;10.230;2023-08-01T12:55:29;30.60;99.90
45765;DHT22;31474;45.332;10.230;2023-08-01T12:57:55;30.60;99.90
45765;DHT22;31474;45.332;10.230;2023-08-01T13:00:20;30.60;99.90
45765;DHT22;31474;45.332;10.230;2023-08-01T13:02:46;30.60;99.90
45765;DHT22;31474;45.332;10.230;2023-08-01T13:05:12;30.60;99.90
45765;DHT22;31474;45.332;10.230;2023-08-01T13:07:38;30.60;99.90
45765;DHT22;31474;45.332;10.230;2023-08-01T13:10:04;30.50;99.90
45765;DHT22;31474;45.332;10.230;2023-08-01T13:12:30;30.50;99.90
45765;DHT22;31474;45.332;10.230;2023-08-01T13:14:55;30.60;99.90
45765;DHT22;31474;45.332;10.230;2023-08-01T13:17:21;30.60;99.90
45765;DHT22;31474;45.332;10.230;2023-08-01T13:20:08;30.70;99.90
45765;DHT22;31474;45.332;10.230;2023-08-01T13:22:40;30.70;99.90
45765;DHT22;31474;45.332;10.230;2023-08-01T13:25:06;30.70;99.90
45765;DHT22;31474;45.332;10.230;2023-08-01T13:27:34;30.90;99.90
45765;DHT22;31474;45.332;10.230;2023-08-01T13:30:00;31.00;99.90
45765;DHT22;31474;45.332;10.230;2023-08-01T13:32:26;31.10;99.90
45765;DHT22;31474;45.332;10.230;2023-08-01T13:34:51;31.20;99.90
45765;DHT22;31474;45.332;10.230;2023-08-01T13:37:17;31.30;99.90
45765;DHT22;31474;45.332;10.230;2023-08-01T13:39:43;31.40;99.90
45765;DHT22;31474;45.332;10.230;2023-08-01T13:42:14;31.40;99.70
45765;DHT22;31474;45.332;10.230;2023-08-01T13:44:40;31.40;99.80
45765;DHT22;31474;45.332;10.230;2023-08-01T13:47:06;31.30;99.30
45765;DHT22;31474;45.332;10.230;2023-08-01T13:49:31;31.30;99.70
45765;DHT22;31474;45.332;10.230;2023-08-01T13:51:58;31.20;99.40
45765;DHT22;31474;45.332;10.230;2023-08-01T13:54:24;31.20;99.90
45765;DHT22;31474;45.332;10.230;2023-08-01T13:56:50;31.20;99.90
45765;DHT22;31474;45.332;10.230;2023-08-01T13:59:15;31.30;99.90
45765;DHT22;31474;45.332;10.230;2023-08-01T14:01:41;31.20;99.80
45765;DHT22;31474;45.332;10.230;2023-08-01T14:04:06;31.20;99.70
45765;DHT22;31474;45.332;10.230;2023-08-01T14:06:33;31.20;99.70
45765;DHT22;31474;45.332;10.230;2023-08-01T14:08:58;31.20;99.30
45765;DHT22;31474;45.332;10.230;2023-08-01T14:11:24;31.20;99.20
45765;DHT22;31474;45.332;10.230;2023-08-01T14:13:50;31.20;99.40
45765;DHT22;31474;45.332;10.230;2023-08-01T14:16:15;31.30;99.70
45765;DHT22;31474;45.332;10.230;2023-08-01T14:18:42;31.40;99.70
45765;DHT22;31474;45.332;10.230;2023-08-01T14:21:09;31.40;99.10
45765;DHT22;31474;45.332;10.230;2023-08-01T14:23:35;31.40;99.00
45765;DHT22;31474;45.332;10.230;2023-08-01T14:26:03;31.30;99.10
45765;DHT22;31474;45.332;10.230;2023-08-01T14:28:29;31.30;99.00
45765;DHT22;31474;45.332;10.230;2023-08-01T14:30:55;31.20;99.00
45765;DHT22;31474;45.332;10.230;2023-08-01T14:33:20;31.20;99.30
45765;DHT22;31474;45.332;10.230;2023-08-01T14:35:46;31.20;99.60
45765;DHT22;31474;45.332;10.230;2023-08-01T14:38:12;31.20;99.40
45765;DHT22;31474;45.332;10.230;2023-08-01T14:40:37;31.20;99.10
45765;DHT22;31474;45.332;10.230;2023-08-01T14:43:04;31.10;99.00
45765;DHT22;31474;45.332;10.230;2023-08-01T14:45:30;31.00;99.20
45765;DHT22;31474;45.332;10.230;2023-08-01T14:47:56;31.00;99.20
45765;DHT22;31474;45.332;10.230;2023-08-01T14:50:22;30.90;99.30
45765;DHT22;31474;45.332;10.230;2023-08-01T14:52:47;30.90;99.20
45765;DHT22;31474;45.332;10.230;2023-08-01T14:55:13;30.70;99.20
45765;DHT22;31474;45.332;10.230;2023-08-01T14:57:39;30.70;99.20
45765;DHT22;31474;45.332;10.230;2023-08-01T15:00:05;30.70;99.40
45765;DHT22;31474;45.332;10.230;2023-08-01T15:02:31;30.80;99.30
45765;DHT22;31474;45.332;10.230;2023-08-01T15:04:57;30.90;99.40
45765;DHT22;31474;45.332;10.230;2023-08-01T15:07:24;31.00;99.30
45765;DHT22;31474;45.332;10.230;2023-08-01T15:09:50;31.10;99.60
45765;DHT22;31474;45.332;10.230;2023-08-01T15:12:20;31.10;99.10
45765;DHT22;31474;45.332;10.230;2023-08-01T15:14:50;31.10;99.40
45765;DHT22;31474;45.332;10.230;2023-08-01T15:17:16;31.00;98.70
45765;DHT22;31474;45.332;10.230;2023-08-01T15:19:42;30.90;99.40